createdAt,value
2022-09-28T00:02:24.554Z,14.03
2022-09-28T00:04:51.411Z,15.77
2022-09-28T00:07:18.155Z,16.60
2022-09-28T00:09:44.924Z,15.40
2022-09-28T00:12:11.836Z,16.77
2022-09-28T00:14:40.570Z,15.43
2022-09-28T00:17:08.292Z,15.10
2022-09-28T00:19:35.163Z,16.80
2022-09-28T00:22:01.996Z,15.83
2022-09-28T00:24:29.569Z,14.60
2022-09-28T00:26:58.876Z,15.47
2022-09-28T00:29:34.183Z,15.40
2022-09-28T00:32:07.872Z,15.10
2022-09-28T00:34:43.299Z,15.37
2022-09-28T00:37:10.536Z,15.73
2022-09-28T00:39:41.184Z,13.27
2022-09-28T00:42:25.986Z,14.70
2022-09-28T00:44:56.804Z,15.00
2022-09-28T00:47:45.480Z,15.37
2022-09-28T00:50:21.401Z,15.33
2022-09-28T00:52:54.330Z,13.83
2022-09-28T00:55:29.170Z,15.07
2022-09-28T00:57:59.414Z,15.30
2022-09-28T01:00:26.612Z,15.73
2022-09-28T01:02:53.653Z,13.70
2022-09-28T01:05:22.399Z,13.60
2022-09-28T01:07:49.286Z,12.57
2022-09-28T01:10:16.199Z,12.93
2022-09-28T01:12:43.326Z,13.47
2022-09-28T01:15:11.000Z,12.77
2022-09-28T01:18:07.175Z,12.80
2022-09-28T01:21:01.814Z,14.47
2022-09-28T01:23:54.375Z,14.80
2022-09-28T01:27:11.854Z,15.83
2022-09-28T01:30:14.578Z,16.13
2022-09-28T01:32:51.255Z,15.77
2022-09-28T01:35:31.311Z,15.83
2022-09-28T01:38:14.424Z,15.43
2022-09-28T01:40:42.055Z,17.50
2022-09-28T01:43:14.726Z,17.27
2022-09-28T01:45:49.509Z,16.20
2022-09-28T01:48:24.019Z,16.97
2022-09-28T01:50:56.171Z,16.20
2022-09-28T01:53:32.152Z,16.53
2022-09-28T01:56:14.422Z,16.33
2022-09-28T01:58:48.778Z,16.97
2022-09-28T02:01:28.873Z,17.83
2022-09-28T02:04:16.311Z,17.37
2022-09-28T02:06:58.734Z,15.10
2022-09-28T02:09:34.181Z,16.27
2022-09-28T02:12:10.734Z,16.40
2022-09-28T02:14:41.226Z,15.87
2022-09-28T02:17:10.118Z,14.10
2022-09-28T02:19:38.569Z,15.17
2022-09-28T02:22:05.348Z,16.00
2022-09-28T02:24:38.944Z,15.70
2022-09-28T02:27:17.195Z,15.30
2022-09-28T02:29:45.149Z,14.80
2022-09-28T02:32:11.991Z,14.83
2022-09-28T02:34:39.885Z,14.97
2022-09-28T02:37:08.709Z,14.00
2022-09-28T02:39:35.503Z,13.37
2022-09-28T02:42:21.330Z,13.80
2022-09-28T02:44:51.166Z,12.93
2022-09-28T02:47:44.349Z,13.63
2022-09-28T02:50:23.986Z,13.50
2022-09-28T02:53:10.507Z,12.60
2022-09-28T02:55:43.651Z,13.90
2022-09-28T02:58:22.100Z,14.37
2022-09-28T03:01:15.944Z,15.23
2022-09-28T03:03:50.391Z,15.23
2022-09-28T03:06:33.630Z,15.47
2022-09-28T03:09:07.746Z,15.13
2022-09-28T03:12:06.594Z,14.47
2022-09-28T03:14:33.637Z,14.97
2022-09-28T03:17:00.588Z,16.17
2022-09-28T03:19:33.227Z,21.47
2022-09-28T03:22:01.790Z,21.93
2022-09-28T03:24:28.624Z,20.70
2022-09-28T03:26:55.402Z,22.10
2022-09-28T03:29:22.906Z,20.47
2022-09-28T03:32:02.293Z,19.53
2022-09-28T03:34:29.101Z,18.93
2022-09-28T03:36:56.187Z,17.57
2022-09-28T03:39:23.607Z,18.00
2022-09-28T03:41:50.404Z,17.20
2022-09-28T03:44:20.063Z,15.87
2022-09-28T03:46:48.125Z,16.37
2022-09-28T03:49:14.980Z,15.83
2022-09-28T03:51:41.809Z,15.90
2022-09-28T03:54:08.794Z,15.70
2022-09-28T03:56:35.563Z,16.67
2022-09-28T03:59:05.553Z,17.47
2022-09-28T04:01:32.583Z,18.03
2022-09-28T04:03:59.455Z,17.10
2022-09-28T04:06:26.559Z,18.40
2022-09-28T04:08:53.855Z,18.40
2022-09-28T04:11:20.973Z,17.63
2022-09-28T04:13:49.471Z,17.60
2022-09-28T04:16:17.888Z,17.30
2022-09-28T04:18:53.224Z,17.50
2022-09-28T04:21:41.134Z,17.30
2022-09-28T04:24:11.359Z,19.50
2022-09-28T04:26:38.185Z,18.27
2022-09-28T04:29:17.298Z,17.53
2022-09-28T04:31:50.727Z,16.80
2022-09-28T04:34:21.485Z,17.17
2022-09-28T04:36:49.948Z,17.63
2022-09-28T04:39:18.256Z,16.33
2022-09-28T04:41:51.353Z,18.07
2022-09-28T04:44:18.792Z,18.20
2022-09-28T04:46:47.384Z,17.50
2022-09-28T04:49:29.514Z,16.00
2022-09-28T04:51:58.506Z,16.80
2022-09-28T04:54:25.293Z,16.83
2022-09-28T04:56:52.908Z,16.83
2022-09-28T04:59:19.769Z,17.40
2022-09-28T05:01:47.558Z,17.13
2022-09-28T05:04:32.971Z,18.03
2022-09-28T05:07:26.904Z,17.33
2022-09-28T05:09:55.250Z,16.33
2022-09-28T05:12:22.029Z,17.80
2022-09-28T05:14:48.805Z,18.53
2022-09-28T05:17:15.826Z,19.70
2022-09-28T05:19:45.409Z,17.70
2022-09-28T05:22:14.869Z,18.17
2022-09-28T05:24:46.451Z,16.17
2022-09-28T05:27:13.785Z,15.20
2022-09-28T05:29:41.116Z,17.20
2022-09-28T05:32:46.205Z,15.57
2022-09-28T05:35:29.535Z,14.97
2022-09-28T05:37:57.248Z,15.93
2022-09-28T05:40:24.190Z,15.27
2022-09-28T05:42:51.000Z,16.23
2022-09-28T05:45:17.808Z,15.23
2022-09-28T05:47:46.244Z,15.50
2022-09-28T05:50:16.311Z,15.07
2022-09-28T05:52:44.116Z,14.80
2022-09-28T05:55:11.652Z,15.30
2022-09-28T05:57:38.823Z,16.10
2022-09-28T06:00:10.190Z,14.97
2022-09-28T06:02:40.179Z,14.77
2022-09-28T06:05:09.534Z,14.07
2022-09-28T06:07:36.380Z,14.33
2022-09-28T06:10:03.915Z,16.03
2022-09-28T06:12:41.248Z,14.87
2022-09-28T06:15:15.135Z,14.97
2022-09-28T06:17:43.861Z,14.20
2022-09-28T06:20:42.500Z,14.27
2022-09-28T06:23:16.403Z,13.80
2022-09-28T06:25:43.620Z,14.10
2022-09-28T06:28:13.127Z,13.97
2022-09-28T06:30:41.503Z,14.47
2022-09-28T06:33:13.431Z,14.23
2022-09-28T06:35:42.271Z,14.77
2022-09-28T06:38:09.725Z,15.73
2022-09-28T06:40:38.625Z,16.20
2022-09-28T06:43:10.561Z,15.37
2022-09-28T06:45:56.097Z,15.97
2022-09-28T06:48:44.264Z,15.67
2022-09-28T06:51:18.575Z,15.60
2022-09-28T06:54:00.532Z,15.40
2022-09-28T06:56:40.911Z,16.37
2022-09-28T06:59:07.787Z,16.50
2022-09-28T07:01:36.527Z,15.53
2022-09-28T07:04:10.457Z,16.27
2022-09-28T07:06:56.156Z,15.03
2022-09-28T07:09:46.458Z,15.00
2022-09-28T07:12:35.851Z,15.93
2022-09-28T07:15:12.254Z,16.17
2022-09-28T07:17:54.554Z,16.60
2022-09-28T07:20:27.169Z,16.20
2022-09-28T07:23:14.968Z,17.20
2022-09-28T07:26:15.013Z,17.33
2022-09-28T07:28:56.140Z,18.13
2022-09-28T07:31:33.827Z,16.73
2022-09-28T07:34:26.508Z,17.30
2022-09-28T07:37:13.673Z,16.97
2022-09-28T07:39:59.556Z,17.30
2022-09-28T07:42:30.562Z,16.40
2022-09-28T07:44:58.102Z,17.53
2022-09-28T07:47:33.846Z,16.13
2022-09-28T07:50:30.821Z,15.93
2022-09-28T07:53:22.382Z,17.37
2022-09-28T07:56:14.039Z,17.23
2022-09-28T07:58:52.572Z,17.67
2022-09-28T08:01:49.614Z,17.00
2022-09-28T08:04:17.835Z,17.73
2022-09-28T08:06:48.291Z,16.87
2022-09-28T08:09:15.413Z,15.70
2022-09-28T08:12:01.031Z,16.37
2022-09-28T08:14:49.183Z,15.63
2022-09-28T08:17:34.137Z,16.10
2022-09-28T08:20:24.131Z,16.67
2022-09-28T08:22:51.290Z,17.93
2022-09-28T08:25:18.985Z,17.23
2022-09-28T08:27:46.821Z,17.07
2022-09-28T08:30:14.668Z,17.10
2022-09-28T08:32:50.350Z,16.43
2022-09-28T08:35:35.719Z,16.70
2022-09-28T08:38:29.978Z,17.83
2022-09-28T08:41:18.177Z,16.13
2022-09-28T08:44:25.935Z,15.77
2022-09-28T08:47:48.758Z,16.53
2022-09-28T08:50:29.111Z,15.10
2022-09-28T08:53:44.864Z,15.50
2022-09-28T08:56:42.990Z,16.40
2022-09-28T08:59:18.882Z,14.53
2022-09-28T09:01:58.019Z,14.77
2022-09-28T09:04:26.466Z,15.57
2022-09-28T09:07:41.583Z,15.13
2022-09-28T09:10:28.671Z,15.23
2022-09-28T09:13:29.102Z,16.00
2022-09-28T09:16:09.989Z,15.20
2022-09-28T09:19:00.782Z,15.73
2022-09-28T09:22:01.184Z,15.88
2022-09-28T09:24:50.615Z,16.17
2022-09-28T09:27:41.339Z,15.35
2022-09-28T09:30:12.827Z,15.45
2022-09-28T09:33:01.337Z,14.93
2022-09-28T09:35:37.508Z,14.68
2022-09-28T09:38:41.127Z,13.88
2022-09-28T09:41:54.008Z,13.25
2022-09-28T09:45:14.155Z,14.40
2022-09-28T09:48:31.181Z,14.10
2022-09-28T09:51:03.193Z,14.20
2022-09-28T09:53:38.628Z,12.45
2022-09-28T09:56:15.440Z,10.60
2022-09-28T09:59:19.970Z,10.85
2022-09-28T10:02:21.164Z,10.95
2022-09-28T10:04:58.597Z,6.15
2022-09-28T10:07:50.017Z,5.53
2022-09-28T10:10:29.938Z,4.53
2022-09-28T10:13:25.833Z,5.47
2022-09-28T10:15:55.472Z,4.40
2022-09-28T10:18:28.154Z,5.30
2022-09-28T10:21:20.497Z,4.95
2022-09-28T10:23:58.053Z,5.03
2022-09-28T10:26:43.301Z,5.47
2022-09-28T10:29:20.659Z,4.95
2022-09-28T10:31:49.377Z,5.05
2022-09-28T10:34:30.508Z,4.38
2022-09-28T10:37:06.715Z,4.32
2022-09-28T10:39:55.986Z,3.78
2022-09-28T10:42:31.385Z,2.92
2022-09-28T10:45:05.354Z,3.40
2022-09-28T10:47:35.689Z,3.90
2022-09-28T10:50:27.015Z,3.30
2022-09-28T10:53:21.413Z,2.75
2022-09-28T10:56:18.374Z,3.90
2022-09-28T10:58:45.945Z,3.55
2022-09-28T11:01:26.884Z,2.92
2022-09-28T11:04:02.231Z,3.10
2022-09-28T11:06:36.960Z,2.72
2022-09-28T11:09:22.607Z,2.90
2022-09-28T11:11:50.073Z,3.03
2022-09-28T11:14:42.133Z,2.92
2022-09-28T11:17:16.103Z,3.30
2022-09-28T11:19:43.783Z,3.10
2022-09-28T11:22:37.941Z,3.40
2022-09-28T11:25:19.141Z,3.42
2022-09-28T11:27:53.140Z,3.90
2022-09-28T11:30:23.846Z,5.38
2022-09-28T11:33:33.006Z,6.25
2022-09-28T11:36:39.444Z,7.43
2022-09-28T11:39:18.034Z,10.50
2022-09-28T11:42:07.176Z,10.27
2022-09-28T11:44:39.820Z,12.57
2022-09-28T11:47:36.967Z,12.38
2022-09-28T11:50:29.404Z,11.73
2022-09-28T11:53:18.193Z,16.13
2022-09-28T11:56:09.208Z,12.55
2022-09-28T11:58:48.028Z,12.52
2022-09-28T12:01:35.660Z,11.30
2022-09-28T12:04:20.755Z,11.85
2022-09-28T12:06:56.636Z,11.77
2022-09-28T12:10:02.322Z,10.07
2022-09-28T12:12:35.351Z,10.20
2022-09-28T12:15:23.163Z,10.73
2022-09-28T12:17:56.113Z,12.23
2022-09-28T12:20:33.337Z,12.30
2022-09-28T12:23:00.004Z,12.98
2022-09-28T12:25:33.026Z,12.10
2022-09-28T12:28:03.407Z,14.00
2022-09-28T12:30:40.595Z,12.95
2022-09-28T12:33:15.473Z,13.23
2022-09-28T12:35:48.196Z,12.45
2022-09-28T12:38:33.396Z,10.68
2022-09-28T12:41:22.586Z,10.30
2022-09-28T12:44:04.662Z,9.15
2022-09-28T12:47:06.479Z,7.55
2022-09-28T12:50:37.682Z,6.60
2022-09-28T12:53:07.377Z,6.75
2022-09-28T12:55:56.527Z,5.80
2022-09-28T12:58:52.156Z,5.47
2022-09-28T13:01:42.439Z,4.88
2022-09-28T13:04:48.867Z,4.82
2022-09-28T13:07:32.455Z,5.10
2022-09-28T13:10:32.720Z,5.10
2022-09-28T13:13:41.190Z,4.28
2022-09-28T13:16:17.562Z,4.57
2022-09-28T13:18:55.984Z,5.20
2022-09-28T13:21:40.965Z,5.60
2022-09-28T13:24:30.958Z,4.60
2022-09-28T13:27:04.728Z,5.40
2022-09-28T13:29:34.100Z,4.97
2022-09-28T13:32:03.264Z,5.55
2022-09-28T13:34:33.576Z,7.07
2022-09-28T13:37:20.283Z,4.63
2022-09-28T13:39:52.253Z,4.70
2022-09-28T13:42:35.115Z,3.80
2022-09-28T13:45:25.124Z,3.20
2022-09-28T13:47:51.927Z,2.72
2022-09-28T13:50:44.571Z,2.85
2022-09-28T13:53:55.689Z,2.60
2022-09-28T13:56:53.601Z,2.67
2022-09-28T13:59:31.966Z,2.97
2022-09-28T14:02:06.964Z,3.13
2022-09-28T14:05:01.780Z,3.28
2022-09-28T14:07:34.613Z,3.45
2022-09-28T14:10:17.638Z,3.63
2022-09-28T14:12:54.938Z,3.20
2022-09-28T14:15:37.007Z,3.65
2022-09-28T14:18:26.917Z,3.95
2022-09-28T14:21:02.670Z,3.38
2022-09-28T14:23:50.655Z,3.75
2022-09-28T14:26:29.913Z,3.95
2022-09-28T14:29:17.689Z,4.70
2022-09-28T14:31:45.330Z,5.53
2022-09-28T14:34:37.567Z,6.20
2022-09-28T14:37:36.897Z,6.50
2022-09-28T14:40:39.992Z,5.78
2022-09-28T14:43:32.571Z,5.88
2022-09-28T14:46:11.530Z,6.00
2022-09-28T14:48:49.134Z,5.15
2022-09-28T14:51:26.204Z,6.30
2022-09-28T14:53:55.347Z,5.80
2022-09-28T14:56:22.233Z,6.65
2022-09-28T14:58:56.915Z,6.57
2022-09-28T15:01:25.978Z,6.53
2022-09-28T15:03:56.657Z,6.38
2022-09-28T15:06:24.622Z,7.00
2022-09-28T15:08:51.655Z,7.32
2022-09-28T15:11:23.607Z,6.88
2022-09-28T15:13:55.643Z,6.00
2022-09-28T15:16:24.097Z,6.40
2022-09-28T15:19:00.051Z,5.80
2022-09-28T15:21:39.950Z,6.90
2022-09-28T15:24:32.659Z,7.55
2022-09-28T15:27:13.703Z,7.32
2022-09-28T15:29:40.934Z,6.90
2022-09-28T15:32:27.341Z,7.18
2022-09-28T15:34:56.842Z,6.70
2022-09-28T15:37:29.428Z,7.85
2022-09-28T15:39:58.040Z,8.30
2022-09-28T15:42:25.645Z,7.97
2022-09-28T15:45:37.147Z,7.60
2022-09-28T15:48:30.412Z,7.60
2022-09-28T15:51:12.729Z,6.88
2022-09-28T15:53:54.201Z,9.40
2022-09-28T15:56:21.058Z,8.57
2022-09-28T15:59:11.150Z,7.70
2022-09-28T16:01:39.997Z,7.32
2022-09-28T16:04:37.461Z,7.43
2022-09-28T16:07:17.339Z,6.95
2022-09-28T16:10:06.201Z,8.15
2022-09-28T16:12:41.316Z,7.90
2022-09-28T16:15:20.218Z,6.72
2022-09-28T16:18:03.108Z,6.40
2022-09-28T16:20:36.484Z,6.00
2022-09-28T16:23:16.020Z,6.60
2022-09-28T16:25:59.461Z,9.43
2022-09-28T16:28:35.086Z,12.07
2022-09-28T16:31:07.624Z,12.00
2022-09-28T16:33:45.780Z,12.75
2022-09-28T16:36:16.046Z,12.95
2022-09-28T16:38:47.017Z,14.30
2022-09-28T16:41:19.482Z,16.50
2022-09-28T16:43:47.145Z,14.38
2022-09-28T16:46:17.801Z,16.15
2022-09-28T16:48:50.232Z,18.63
2022-09-28T16:51:19.718Z,19.02
2022-09-28T16:54:05.533Z,19.10
2022-09-28T16:56:35.086Z,19.98
2022-09-28T16:59:04.931Z,20.58
2022-09-28T17:01:32.033Z,19.40
2022-09-28T17:03:58.903Z,19.55
2022-09-28T17:06:26.715Z,20.48
2022-09-28T17:08:59.343Z,19.13
2022-09-28T17:11:26.208Z,15.02
2022-09-28T17:13:59.038Z,17.60
2022-09-28T17:16:57.333Z,18.80
2022-09-28T17:19:25.708Z,18.30
2022-09-28T17:21:53.080Z,15.73
2022-09-28T17:24:20.514Z,17.67
2022-09-28T17:26:49.904Z,16.85
2022-09-28T17:29:16.949Z,19.80
2022-09-28T17:31:45.630Z,18.67
2022-09-28T17:34:15.204Z,16.30
2022-09-28T17:36:43.347Z,18.77
2022-09-28T17:39:15.400Z,20.02
2022-09-28T17:41:42.440Z,18.30
2022-09-28T17:44:09.636Z,19.23
2022-09-28T17:46:39.740Z,18.27
2022-09-28T17:49:09.743Z,18.45
2022-09-28T17:51:37.709Z,17.83
2022-09-28T17:54:06.546Z,18.15
2022-09-28T17:56:33.938Z,15.88
2022-09-28T17:59:06.651Z,18.88
2022-09-28T18:01:39.315Z,20.15
2022-09-28T18:04:08.846Z,21.10
2022-09-28T18:06:37.292Z,19.15
2022-09-28T18:09:05.515Z,19.92
2022-09-28T18:11:33.653Z,19.77
2022-09-28T18:14:01.030Z,19.33
2022-09-28T18:16:28.980Z,19.83
2022-09-28T18:18:56.175Z,19.85
2022-09-28T18:21:23.051Z,17.70
2022-09-28T18:23:50.134Z,19.20
2022-09-28T18:26:19.601Z,19.50
2022-09-28T18:28:47.110Z,21.23
2022-09-28T18:31:15.568Z,23.88
2022-09-28T18:33:52.569Z,24.10
2022-09-28T18:36:23.631Z,20.85
2022-09-28T18:38:50.732Z,21.95
2022-09-28T18:41:17.572Z,22.88
2022-09-28T18:43:51.073Z,24.58
2022-09-28T18:46:18.730Z,26.70
2022-09-28T18:48:47.240Z,29.80
2022-09-28T18:51:14.509Z,27.73
2022-09-28T18:53:41.617Z,24.27
2022-09-28T18:56:10.732Z,24.52
2022-09-28T18:58:39.873Z,24.88
2022-09-28T19:01:31.576Z,26.13
2022-09-28T19:04:00.629Z,22.15
2022-09-28T19:06:28.117Z,21.08
2022-09-28T19:08:55.782Z,23.25
2022-09-28T19:11:23.150Z,23.60
2022-09-28T19:13:50.636Z,22.73
2022-09-28T19:16:27.379Z,24.75
2022-09-28T19:18:56.303Z,22.27
2022-09-28T19:21:23.346Z,24.30
2022-09-28T19:23:50.739Z,22.30
2022-09-28T19:26:21.293Z,21.88
2022-09-28T19:28:48.500Z,24.50
2022-09-28T19:31:15.690Z,23.98
2022-09-28T19:33:43.780Z,25.02
2022-09-28T19:36:12.951Z,28.55
2022-09-28T19:38:40.243Z,33.20
2022-09-28T19:41:12.993Z,32.40
2022-09-28T19:43:43.652Z,32.40
2022-09-28T19:46:12.765Z,28.52
2022-09-28T19:48:42.355Z,25.83
2022-09-28T19:51:09.209Z,24.67
2022-09-28T19:53:41.084Z,24.90
2022-09-28T19:56:07.886Z,22.15
2022-09-28T19:58:36.553Z,27.57
2022-09-28T20:01:07.149Z,25.15
2022-09-28T20:03:34.882Z,24.95
2022-09-28T20:06:02.269Z,23.93
2022-09-28T20:08:32.588Z,23.02
2022-09-28T20:11:00.118Z,23.55
2022-09-28T20:13:33.730Z,24.27
2022-09-28T20:16:08.011Z,22.52
2022-09-28T20:18:36.457Z,20.33
2022-09-28T20:21:04.829Z,20.57
2022-09-28T20:23:31.760Z,20.70
2022-09-28T20:25:59.011Z,21.27
2022-09-28T20:28:26.118Z,20.92
2022-09-28T20:30:53.175Z,20.00
2022-09-28T20:33:28.698Z,20.63
2022-09-28T20:35:56.066Z,23.83
2022-09-28T20:38:23.668Z,23.47
2022-09-28T20:40:50.560Z,25.27
2022-09-28T20:43:17.361Z,23.33
2022-09-28T20:45:44.306Z,23.63
2022-09-28T20:48:11.104Z,24.30
2022-09-28T20:50:37.890Z,26.13
2022-09-28T20:53:04.745Z,26.07
2022-09-28T20:55:31.470Z,26.23
2022-09-28T20:58:02.808Z,26.17
2022-09-28T21:00:29.821Z,25.30
2022-09-28T21:02:56.690Z,25.60
2022-09-28T21:05:23.499Z,24.33
2022-09-28T21:07:50.278Z,25.30
2022-09-28T21:10:17.123Z,24.27
2022-09-28T21:12:48.180Z,24.20
2022-09-28T21:15:15.006Z,24.60
2022-09-28T21:17:41.829Z,24.57
2022-09-28T21:20:08.934Z,23.80
2022-09-28T21:22:35.706Z,23.77
2022-09-28T21:25:02.478Z,23.20
2022-09-28T21:27:29.265Z,22.90
2022-09-28T21:29:55.977Z,26.87
2022-09-28T21:32:23.295Z,28.10
2022-09-28T21:34:50.470Z,23.60
2022-09-28T21:37:17.269Z,22.13
2022-09-28T21:39:44.160Z,20.40
2022-09-28T21:42:10.883Z,20.97
2022-09-28T21:44:37.676Z,22.43
2022-09-28T21:47:04.566Z,21.53
2022-09-28T21:49:31.288Z,16.80
2022-09-28T21:51:58.041Z,19.07
2022-09-28T21:54:24.793Z,20.33
2022-09-28T21:56:52.589Z,20.97
2022-09-28T21:59:19.458Z,20.43
2022-09-28T22:01:48.120Z,21.33
2022-09-28T22:04:14.958Z,17.90
2022-09-28T22:06:41.754Z,20.30
2022-09-28T22:09:08.902Z,21.40
2022-09-28T22:11:35.726Z,22.93
2022-09-28T22:14:02.540Z,24.10
2022-09-28T22:16:30.742Z,23.43
2022-09-28T22:18:58.756Z,20.60
2022-09-28T22:21:31.828Z,23.67
2022-09-28T22:24:01.163Z,24.57
2022-09-28T22:26:29.504Z,24.80
2022-09-28T22:28:58.721Z,24.70
2022-09-28T22:31:29.005Z,26.30
2022-09-28T22:33:56.815Z,24.90
2022-09-28T22:36:24.307Z,23.47
2022-09-28T22:38:51.330Z,23.07
2022-09-28T22:41:22.304Z,24.00
2022-09-28T22:43:51.379Z,22.97
2022-09-28T22:46:20.878Z,24.57
2022-09-28T22:48:49.541Z,25.57
2022-09-28T22:51:16.914Z,24.77
2022-09-28T22:53:44.256Z,24.87
2022-09-28T22:56:14.738Z,23.63
2022-09-28T22:58:45.115Z,22.53
2022-09-28T23:01:15.137Z,24.33
2022-09-28T23:03:42.618Z,24.60
2022-09-28T23:06:10.896Z,22.40
2022-09-28T23:08:38.957Z,18.33
2022-09-28T23:11:06.618Z,19.17
2022-09-28T23:13:33.707Z,18.77
2022-09-28T23:16:27.060Z,20.57
2022-09-28T23:18:55.547Z,20.97
2022-09-28T23:21:24.618Z,21.13
2022-09-28T23:23:54.362Z,20.30
2022-09-28T23:26:27.563Z,21.57
2022-09-28T23:28:55.363Z,19.50
2022-09-28T23:31:24.913Z,22.47
2022-09-28T23:33:51.983Z,19.90
2022-09-28T23:36:18.968Z,19.27
2022-09-28T23:38:45.862Z,19.57
2022-09-28T23:41:12.614Z,20.30
2022-09-28T23:43:39.478Z,22.70
2022-09-28T23:46:06.487Z,21.83
2022-09-28T23:48:34.981Z,22.80
2022-09-28T23:51:02.463Z,18.47
2022-09-28T23:53:30.067Z,21.20
2022-09-28T23:55:56.788Z,21.40
2022-09-28T23:58:24.180Z,22.73
